Metar Cercanos

 

LEPA - Palma De Mallorc, Spain
Distance from station: ONO 38km
Actualización: Sat, 04-Apr-2020 11:00am CEST
Few Clouds
Few Clouds
 Viento del NO
Viento: NO 2 km/h
Temperatura: 16°C
Rocío: 10°C
Humedad: 68%
Barómetro: 1021 hPa
Clouds: Few Clouds
Visibility: 10 km
Cloud details: Few Clouds 610 m
2020/04/04 09:00 LEPA 040900Z 31001KT 9999 FEW020 16/10 Q1021 NOSIG
LEMH - Mahon/Menorca Is, Spain
Distance from station: ENE 105km
Actualización: Sat, 04-Apr-2020 11:00am CEST
Despejado
Despejado
 Viento del N
Viento: N 17 km/h
Temperatura: 15°C
Rocío: 7°C
Humedad: 59%
Barómetro: 1020 hPa
Resumen: Despejado
Visibility: greater than 10 km
2020/04/04 09:00 LEMH 040900Z 01009KT 320V040 CAVOK 15/07 Q1020
 
LEIB - Ibiza/Es Codola, Spain
Distance from station: OSO 165km
Actualización: Sat, 04-Apr-2020 11:00am CEST
Few Clouds
Few Clouds
 Viento del S
Viento: S 6 km/h
Temperatura: 16°C
Rocío: 10°C
Humedad: 68%
Barómetro: 1021 hPa
Clouds: Few Clouds
Visibility: 10 km
Cloud details: Few Clouds 488 m
2020/04/04 09:00 LEIB 040900Z 17003KT 120V220 9999 FEW016 16/10 Q1021 NOSIG
LEBL - Barcelona Airpor, Spain
Distance from station: NNO 225km
Actualización: Sat, 04-Apr-2020 11:00am CEST
Despejado
Despejado
 Viento del varies
Viento: varies 4 km/h
Temperatura: 14°C
Rocío: 7°C
Humedad: 63%
Barómetro: 1020 hPa
Resumen: Despejado
Visibility: greater than 10 km
2020/04/04 09:00 LEBL 040900Z VRB02KT CAVOK 14/07 Q1020 NOSIG
 
LEVC - Valencia (civ/Mi, Spain
Distance from station: NO 188km
Actualización: Sat, 04-Apr-2020 11:00am CEST
Few Clouds
Few Clouds
 Viento del varies
Viento: varies 4 km/h
Temperatura: 15°C
Rocío: 8°C
Humedad: 63%
Barómetro: 1020 hPa
Clouds: Few Clouds
Visibility: 10 km
Cloud details: Few Clouds 762 m
2020/04/04 09:00 LEVC 040900Z VRB02KT 9999 FEW025 15/08 Q1020 NOSIG
LEGE - Gerona/Costa Bra, Spain
Distance from station: N 276km
Actualización: Sat, 04-Apr-2020 11:00am CEST
Despejado
Despejado
 Viento del ESE
Viento: ESE 4 km/h
Temperatura: 14°C
Rocío: 7°C
Humedad: 63%
Barómetro: 1020 hPa
Resumen: Despejado
Visibility: greater than 10 km
2020/04/04 09:00 LEGE 040900Z 11002KT CAVOK 14/07 Q1020
 
LEAL - Alicante/El Alte, Spain
Distance from station: OSO 344km
Actualización: Sat, 04-Apr-2020 11:00am CEST
Parcialmente nuboso
Parcialmente nuboso
 Viento del ENE
Viento: ENE 6 km/h
Temperatura: 16°C
Rocío: 10°C
Humedad: 68%
Barómetro: 1020 hPa
Clouds: Parcialmente nuboso
Visibility: 10 km
Cloud details: Parcialmente nuboso 853 m
2020/04/04 09:00 LEAL 040900Z 06003KT 340V150 9999 SCT028 16/10 Q1020 NOSIG
LEAM - Almeria Airport, Spain
Distance from station: SSO 56km
Actualización: Sat, 04-Apr-2020 11:00am CEST
Despejado
Despejado
 Viento del NE
Viento: NE 28 km/h
Temperatura: 17°C
Rocío: 8°C
Humedad: 56%
Barómetro: 1017 hPa
Resumen: Despejado
Visibility: greater than 10 km
2020/04/04 09:00 LEAM 040900Z AUTO 05015KT 020V090 CAVOK 17/08 Q1017
 
LEZG - Zaragoza (mil/Ci, Spain
Distance from station: NO 431km
Actualización: Sat, 04-Apr-2020 11:00am CEST
Despejado
Despejado
 Viento del E
Viento: E 7 km/h
Temperatura: 10°C
Sensación frio: 9°C
Rocío: 6°C
Humedad: 76%
Barómetro: 1019 hPa
Resumen: Despejado
Visibility: greater than 10 km
2020/04/04 09:00 LEZG 040900Z 09004KT 040V130 CAVOK 10/06 Q1019
LEMD - Madrid/Barajas, Spain
Distance from station: ONO 234km
Actualización: Sat, 04-Apr-2020 11:00am CEST
Despejado
Despejado
 Viento del N
Viento: N 7 km/h
Temperatura: 11°C
Rocío: 6°C
Humedad: 72%
Barómetro: 1017 hPa
Resumen: Despejado
Visibility: greater than 10 km
2020/04/04 09:00 LEMD 040900Z 36004KT 310V040 CAVOK 11/06 Q1017 NOSIG
 
LEGR - Granada Airport, Spain
Distance from station: OSO 62km
Actualización: Sat, 04-Apr-2020 11:00am CEST
Despejado
Despejado
 Viento del ENE
Viento: ENE 7 km/h
Temperatura: 13°C
Rocío: 5°C
Humedad: 59%
Barómetro: 1015 hPa
Resumen: Despejado
Visibility: greater than 10 km
2020/04/04 09:00 LEGR 040900Z AUTO 07004KT 020V100 CAVOK 13/05 Q1015
LEMG - Malaga (civ/Mil), Spain
Distance from station: OSO 227km
Actualización: Sat, 04-Apr-2020 11:00am CEST
Few Clouds
Few Clouds
 Viento del E
Viento: E 24 km/h
Temperatura: 16°C
Rocío: 11°C
Humedad: 72%
Barómetro: 1015 hPa
Clouds: Few Clouds
Visibility: 10 km
Cloud details: Few Clouds 610 m
2020/04/04 09:00 LEMG 040900Z 10013KT 080V140 9999 FEW020 16/11 Q1015 NOSIG
 
LEZL - Sevilla (civ/Mil, Spain
Distance from station: S 318km
Actualización: Sat, 04-Apr-2020 11:00am CEST
Despejado
Despejado
 Viento del ENE
Viento: ENE 15 km/h
Temperatura: 16°C
Rocío: 9°C
Humedad: 63%
Barómetro: 1013 hPa
Resumen: Despejado
Visibility: greater than 10 km
2020/04/04 09:00 LEZL 040900Z AUTO 07008KT CAVOK 16/09 Q1013
LEVT - Vitoria, Spain
Distance from station: NO 226km
Actualización: Sat, 04-Apr-2020 11:00am CEST
Despejado
Despejado
 Viento del calm
Viento: Calma
Temperatura: 10°C
Rocío: 4°C
Humedad: 67%
Barómetro: 1017 hPa
Resumen: Despejado
Visibility: greater than 10 km
2020/04/04 09:00 LEVT 040900Z 00000KT CAVOK 10/04 Q1017
 
LEBB - Bilbao/Sondica, Spain
Distance from station: NNO 235km
Actualización: Sat, 04-Apr-2020 11:00am CEST
Despejado
Despejado
 Viento del SSE
Viento: SSE 13 km/h
Temperatura: 17°C
Rocío: 6°C
Humedad: 49%
Barómetro: 1015 hPa
Resumen: Despejado
Visibility: greater than 10 km
2020/04/04 09:00 LEBB 040900Z 15007KT 120V190 CAVOK 17/06 Q1015 NOSIG
LESO - San Sebastian/Fu, Spain
Distance from station: N 231km
Actualización: Sat, 04-Apr-2020 11:00am CEST
Despejado
Despejado
 Viento del varies
Viento: varies 2 km/h
Temperatura: 17°C
Rocío: 6°C
Humedad: 49%
Barómetro: 1016 hPa
Resumen: Despejado
Visibility: greater than 10 km
2020/04/04 09:00 LESO 040900Z VRB01KT CAVOK 17/06 Q1016
 
LEVD - Valladolid(Mil/C, Spain
Distance from station: ONO 239km
Actualización: Sat, 04-Apr-2020 11:00am CEST
Despejado
Despejado
 Viento del ESE
Viento: ESE 11 km/h
Temperatura: 9°C
Sensación frio: 7°C
Rocío: 3°C
Humedad: 66%
Barómetro: 1015 hPa
Resumen: Despejado
Visibility: greater than 10 km
2020/04/04 09:00 LEVD 040900Z AUTO 12006KT 080V150 CAVOK 09/03 Q1015
LESA - Salamanca (civ/M, Spain
Distance from station: ONO 349km
Actualización: Sat, 04-Apr-2020 11:00am CEST
Despejado
Despejado
 Viento del varies
Viento: varies 2 km/h
Temperatura: 10°C
Rocío: 3°C
Humedad: 62%
Barómetro: 1014 hPa
Resumen: Despejado
Visibility: greater than 10 km
2020/04/04 09:00 LESA 040900Z AUTO VRB01KT CAVOK 10/03 Q1014
 
LEXJ - Santander/Paraya, Spain
Distance from station: NNO 247km
Actualización: Sat, 04-Apr-2020 11:00am CEST
Despejado
Despejado
 Viento del NE
Viento: NE 4 km/h
Temperatura: 15°C
Rocío: 10°C
Humedad: 72%
Barómetro: 1013 hPa
Resumen: Despejado
Visibility: greater than 10 km
2020/04/04 09:00 LEXJ 040900Z 04002KT CAVOK 15/10 Q1013
LEAS - Asturias/Aviles, Spain
Distance from station: NO 214km
Actualización: Sat, 04-Apr-2020 11:00am CEST
Despejado
Despejado
 Viento del SSO
Viento: SSO 7 km/h
Temperatura: 16°C
Rocío: 7°C
Humedad: 55%
Barómetro: 1013 hPa
Resumen: Despejado
Visibility: greater than 10 km
2020/04/04 09:00 LEAS 040900Z 20004KT 170V240 CAVOK 16/07 Q1013 NOSIG
 
LECO - La Coruna/Alvedr, Spain
Distance from station: ONO 222km
Actualización: Sat, 04-Apr-2020 11:00am CEST
Despejado
Despejado
 Viento del varies
Viento: varies 4 km/h
Temperatura: 16°C
Rocío: 8°C
Humedad: 59%
Barómetro: 1011 hPa
Resumen: Despejado
Visibility: greater than 10 km
2020/04/04 09:00 LECO 040900Z AUTO VRB02KT CAVOK 16/08 Q1011
LEVX - Vigo/Peinador, Spain
Distance from station: O 214km
Actualización: Sat, 04-Apr-2020 11:00am CEST
Despejado
Despejado
 Viento del varies
Viento: varies 6 km/h
Temperatura: 16°C
Rocío: 6°C
Humedad: 52%
Barómetro: 1011 hPa
Resumen: Despejado
Visibility: greater than 10 km
2020/04/04 09:00 LEVX 040900Z VRB03KT CAVOK 16/06 Q1011 NOSIG